sensor_id;sensor_type;location;lat;lon;timestamp;P1;durP1;ratioP1;P2;durP2;ratioP2
3068;SDS011;1545;51.728;8.796;2024-02-16T00:00:08;15.40;;;4.87;;
3068;SDS011;1545;51.728;8.796;2024-02-16T00:02:37;11.63;;;4.70;;
3068;SDS011;1545;51.728;8.796;2024-02-16T00:05:04;10.60;;;4.67;;
3068;SDS011;1545;51.728;8.796;2024-02-16T00:07:32;11.40;;;4.30;;
3068;SDS011;1545;51.728;8.796;2024-02-16T00:09:58;12.47;;;4.07;;
3068;SDS011;1545;51.728;8.796;2024-02-16T00:12:23;9.43;;;3.97;;
3068;SDS011;1545;51.728;8.796;2024-02-16T00:14:48;10.53;;;4.33;;
3068;SDS011;1545;51.728;8.796;2024-02-16T00:17:14;13.07;;;4.53;;
3068;SDS011;1545;51.728;8.796;2024-02-16T00:19:40;10.97;;;4.27;;
3068;SDS011;1545;51.728;8.796;2024-02-16T00:22:05;9.63;;;4.07;;
3068;SDS011;1545;51.728;8.796;2024-02-16T00:24:33;9.30;;;4.57;;
3068;SDS011;1545;51.728;8.796;2024-02-16T00:27:01;13.13;;;4.03;;
3068;SDS011;1545;51.728;8.796;2024-02-16T00:29:28;11.43;;;4.13;;
3068;SDS011;1545;51.728;8.796;2024-02-16T00:31:53;6.57;;;4.13;;
3068;SDS011;1545;51.728;8.796;2024-02-16T00:34:20;13.73;;;3.97;;
3068;SDS011;1545;51.728;8.796;2024-02-16T00:36:46;13.07;;;4.23;;
3068;SDS011;1545;51.728;8.796;2024-02-16T00:39:11;9.50;;;4.30;;
3068;SDS011;1545;51.728;8.796;2024-02-16T00:41:37;16.60;;;4.53;;
3068;SDS011;1545;51.728;8.796;2024-02-16T00:44:02;13.50;;;4.50;;
3068;SDS011;1545;51.728;8.796;2024-02-16T00:46:28;9.97;;;4.17;;
3068;SDS011;1545;51.728;8.796;2024-02-16T00:48:53;7.50;;;3.77;;
3068;SDS011;1545;51.728;8.796;2024-02-16T00:51:19;9.27;;;3.77;;
3068;SDS011;1545;51.728;8.796;2024-02-16T00:53:45;9.17;;;4.00;;
3068;SDS011;1545;51.728;8.796;2024-02-16T00:56:11;8.03;;;3.60;;
3068;SDS011;1545;51.728;8.796;2024-02-16T00:58:39;25.67;;;4.83;;
3068;SDS011;1545;51.728;8.796;2024-02-16T01:01:05;7.50;;;3.80;;
3068;SDS011;1545;51.728;8.796;2024-02-16T01:03:35;15.33;;;4.17;;
3068;SDS011;1545;51.728;8.796;2024-02-16T01:06:02;9.47;;;4.23;;
3068;SDS011;1545;51.728;8.796;2024-02-16T01:08:28;7.90;;;3.60;;
3068;SDS011;1545;51.728;8.796;2024-02-16T01:10:53;9.20;;;4.53;;
3068;SDS011;1545;51.728;8.796;2024-02-16T01:13:19;10.27;;;4.23;;
3068;SDS011;1545;51.728;8.796;2024-02-16T01:15:44;9.87;;;4.23;;
3068;SDS011;1545;51.728;8.796;2024-02-16T01:18:10;7.23;;;3.80;;
3068;SDS011;1545;51.728;8.796;2024-02-16T01:20:36;13.73;;;4.20;;
3068;SDS011;1545;51.728;8.796;2024-02-16T01:23:02;12.20;;;4.73;;
3068;SDS011;1545;51.728;8.796;2024-02-16T01:25:27;11.20;;;5.13;;
3068;SDS011;1545;51.728;8.796;2024-02-16T01:27:53;12.23;;;5.43;;
3068;SDS011;1545;51.728;8.796;2024-02-16T01:30:19;9.07;;;4.77;;
3068;SDS011;1545;51.728;8.796;2024-02-16T01:32:46;11.37;;;4.07;;
3068;SDS011;1545;51.728;8.796;2024-02-16T01:35:12;14.00;;;5.50;;
3068;SDS011;1545;51.728;8.796;2024-02-16T01:37:39;12.87;;;4.27;;
3068;SDS011;1545;51.728;8.796;2024-02-16T01:40:05;9.87;;;4.43;;
3068;SDS011;1545;51.728;8.796;2024-02-16T01:42:32;8.80;;;3.77;;
3068;SDS011;1545;51.728;8.796;2024-02-16T01:44:58;10.77;;;3.83;;
3068;SDS011;1545;51.728;8.796;2024-02-16T01:47:23;6.43;;;4.10;;
3068;SDS011;1545;51.728;8.796;2024-02-16T01:49:49;9.57;;;4.03;;
3068;SDS011;1545;51.728;8.796;2024-02-16T01:52:14;10.70;;;4.80;;
3068;SDS011;1545;51.728;8.796;2024-02-16T01:54:40;8.40;;;3.60;;
3068;SDS011;1545;51.728;8.796;2024-02-16T01:57:06;9.60;;;3.90;;
3068;SDS011;1545;51.728;8.796;2024-02-16T01:59:32;8.67;;;4.00;;
3068;SDS011;1545;51.728;8.796;2024-02-16T02:01:59;8.57;;;3.97;;
3068;SDS011;1545;51.728;8.796;2024-02-16T02:04:25;11.07;;;4.33;;
3068;SDS011;1545;51.728;8.796;2024-02-16T02:06:51;13.60;;;3.93;;
3068;SDS011;1545;51.728;8.796;2024-02-16T02:09:17;7.57;;;3.77;;
3068;SDS011;1545;51.728;8.796;2024-02-16T02:11:42;9.97;;;4.47;;
3068;SDS011;1545;51.728;8.796;2024-02-16T02:14:09;7.63;;;3.90;;
3068;SDS011;1545;51.728;8.796;2024-02-16T02:16:35;8.63;;;3.77;;
3068;SDS011;1545;51.728;8.796;2024-02-16T02:19:06;11.03;;;4.33;;
3068;SDS011;1545;51.728;8.796;2024-02-16T02:21:31;7.40;;;3.80;;
3068;SDS011;1545;51.728;8.796;2024-02-16T02:23:57;12.87;;;3.70;;
3068;SDS011;1545;51.728;8.796;2024-02-16T02:26:22;7.80;;;4.40;;
3068;SDS011;1545;51.728;8.796;2024-02-16T02:28:48;6.87;;;3.70;;
3068;SDS011;1545;51.728;8.796;2024-02-16T02:31:13;10.50;;;3.90;;
3068;SDS011;1545;51.728;8.796;2024-02-16T02:33:39;9.27;;;4.50;;
3068;SDS011;1545;51.728;8.796;2024-02-16T02:36:04;8.50;;;4.10;;
3068;SDS011;1545;51.728;8.796;2024-02-16T02:38:30;8.83;;;3.60;;
3068;SDS011;1545;51.728;8.796;2024-02-16T02:40:56;6.57;;;3.60;;
3068;SDS011;1545;51.728;8.796;2024-02-16T02:43:21;11.33;;;4.13;;
3068;SDS011;1545;51.728;8.796;2024-02-16T02:45:48;5.97;;;3.70;;
3068;SDS011;1545;51.728;8.796;2024-02-16T02:48:13;6.93;;;3.80;;
3068;SDS011;1545;51.728;8.796;2024-02-16T02:50:39;11.07;;;4.10;;
3068;SDS011;1545;51.728;8.796;2024-02-16T02:53:04;11.30;;;3.90;;
3068;SDS011;1545;51.728;8.796;2024-02-16T02:55:30;7.20;;;4.00;;
3068;SDS011;1545;51.728;8.796;2024-02-16T02:57:55;9.50;;;4.03;;
3068;SDS011;1545;51.728;8.796;2024-02-16T03:00:22;6.77;;;3.60;;
3068;SDS011;1545;51.728;8.796;2024-02-16T03:02:48;8.73;;;3.80;;
3068;SDS011;1545;51.728;8.796;2024-02-16T03:05:14;12.27;;;4.07;;
3068;SDS011;1545;51.728;8.796;2024-02-16T03:07:39;15.00;;;4.33;;
3068;SDS011;1545;51.728;8.796;2024-02-16T03:10:05;9.73;;;4.20;;
3068;SDS011;1545;51.728;8.796;2024-02-16T03:12:34;10.07;;;4.00;;
3068;SDS011;1545;51.728;8.796;2024-02-16T03:14:59;7.70;;;4.17;;
3068;SDS011;1545;51.728;8.796;2024-02-16T03:17:25;9.07;;;3.97;;
3068;SDS011;1545;51.728;8.796;2024-02-16T03:19:50;16.97;;;4.23;;
3068;SDS011;1545;51.728;8.796;2024-02-16T03:22:16;10.03;;;3.60;;
3068;SDS011;1545;51.728;8.796;2024-02-16T03:24:42;8.00;;;4.00;;
3068;SDS011;1545;51.728;8.796;2024-02-16T03:27:09;11.83;;;4.03;;
3068;SDS011;1545;51.728;8.796;2024-02-16T03:29:35;9.00;;;4.23;;
3068;SDS011;1545;51.728;8.796;2024-02-16T03:32:01;5.63;;;4.00;;
3068;SDS011;1545;51.728;8.796;2024-02-16T03:34:26;9.80;;;3.83;;
3068;SDS011;1545;51.728;8.796;2024-02-16T03:36:52;6.07;;;3.63;;
3068;SDS011;1545;51.728;8.796;2024-02-16T03:39:17;8.40;;;4.00;;
3068;SDS011;1545;51.728;8.796;2024-02-16T03:41:45;10.57;;;4.33;;
3068;SDS011;1545;51.728;8.796;2024-02-16T03:44:13;8.53;;;4.13;;
3068;SDS011;1545;51.728;8.796;2024-02-16T03:46:39;16.40;;;4.33;;
3068;SDS011;1545;51.728;8.796;2024-02-16T03:49:04;6.87;;;3.83;;
3068;SDS011;1545;51.728;8.796;2024-02-16T03:51:30;9.53;;;4.03;;
3068;SDS011;1545;51.728;8.796;2024-02-16T03:53:55;10.70;;;3.97;;
3068;SDS011;1545;51.728;8.796;2024-02-16T03:56:21;10.50;;;4.10;;
3068;SDS011;1545;51.728;8.796;2024-02-16T03:58:46;7.77;;;4.13;;
3068;SDS011;1545;51.728;8.796;2024-02-16T04:01:12;5.63;;;3.80;;
3068;SDS011;1545;51.728;8.796;2024-02-16T04:03:38;8.23;;;3.80;;
3068;SDS011;1545;51.728;8.796;2024-02-16T04:06:03;10.23;;;4.00;;
3068;SDS011;1545;51.728;8.796;2024-02-16T04:08:29;8.40;;;4.33;;
3068;SDS011;1545;51.728;8.796;2024-02-16T04:10:55;10.70;;;4.23;;
3068;SDS011;1545;51.728;8.796;2024-02-16T04:13:20;10.30;;;4.47;;
3068;SDS011;1545;51.728;8.796;2024-02-16T04:15:46;8.37;;;3.83;;
3068;SDS011;1545;51.728;8.796;2024-02-16T04:18:11;9.67;;;4.30;;
3068;SDS011;1545;51.728;8.796;2024-02-16T04:20:37;7.93;;;4.10;;
3068;SDS011;1545;51.728;8.796;2024-02-16T04:23:02;6.17;;;3.97;;
3068;SDS011;1545;51.728;8.796;2024-02-16T04:25:28;9.67;;;4.20;;
3068;SDS011;1545;51.728;8.796;2024-02-16T04:27:54;12.37;;;4.03;;
3068;SDS011;1545;51.728;8.796;2024-02-16T04:30:19;9.03;;;4.10;;
3068;SDS011;1545;51.728;8.796;2024-02-16T04:32:44;6.80;;;4.30;;
3068;SDS011;1545;51.728;8.796;2024-02-16T04:35:10;10.07;;;4.10;;
3068;SDS011;1545;51.728;8.796;2024-02-16T04:37:39;12.80;;;4.97;;
3068;SDS011;1545;51.728;8.796;2024-02-16T04:40:05;10.40;;;4.27;;
3068;SDS011;1545;51.728;8.796;2024-02-16T04:42:31;9.47;;;4.30;;
3068;SDS011;1545;51.728;8.796;2024-02-16T04:44:56;10.43;;;4.10;;
3068;SDS011;1545;51.728;8.796;2024-02-16T04:47:22;8.50;;;4.20;;
3068;SDS011;1545;51.728;8.796;2024-02-16T04:49:49;7.80;;;4.30;;
3068;SDS011;1545;51.728;8.796;2024-02-16T04:52:15;13.10;;;4.03;;
3068;SDS011;1545;51.728;8.796;2024-02-16T04:54:40;9.47;;;4.43;;
3068;SDS011;1545;51.728;8.796;2024-02-16T04:57:06;14.07;;;4.10;;
3068;SDS011;1545;51.728;8.796;2024-02-16T04:59:32;12.23;;;4.40;;
3068;SDS011;1545;51.728;8.796;2024-02-16T05:01:58;9.93;;;4.80;;
3068;SDS011;1545;51.728;8.796;2024-02-16T05:04:23;8.73;;;4.70;;
3068;SDS011;1545;51.728;8.796;2024-02-16T05:06:48;8.87;;;4.40;;
3068;SDS011;1545;51.728;8.796;2024-02-16T05:09:16;8.10;;;4.17;;
3068;SDS011;1545;51.728;8.796;2024-02-16T05:11:42;6.73;;;3.77;;
3068;SDS011;1545;51.728;8.796;2024-02-16T05:14:08;10.40;;;4.17;;
3068;SDS011;1545;51.728;8.796;2024-02-16T05:16:36;11.80;;;4.90;;
3068;SDS011;1545;51.728;8.796;2024-02-16T05:19:02;10.17;;;3.90;;
3068;SDS011;1545;51.728;8.796;2024-02-16T05:21:28;8.17;;;4.20;;
3068;SDS011;1545;51.728;8.796;2024-02-16T05:23:53;9.20;;;4.17;;
3068;SDS011;1545;51.728;8.796;2024-02-16T05:26:20;8.13;;;4.10;;
3068;SDS011;1545;51.728;8.796;2024-02-16T05:28:45;14.07;;;4.77;;
3068;SDS011;1545;51.728;8.796;2024-02-16T05:31:15;8.10;;;4.40;;
3068;SDS011;1545;51.728;8.796;2024-02-16T05:33:50;10.13;;;4.23;;
3068;SDS011;1545;51.728;8.796;2024-02-16T05:36:19;10.83;;;4.50;;
3068;SDS011;1545;51.728;8.796;2024-02-16T05:38:48;9.00;;;5.13;;
3068;SDS011;1545;51.728;8.796;2024-02-16T05:41:15;10.90;;;4.80;;
3068;SDS011;1545;51.728;8.796;2024-02-16T05:43:43;7.07;;;4.40;;
3068;SDS011;1545;51.728;8.796;2024-02-16T05:46:12;11.10;;;4.60;;
3068;SDS011;1545;51.728;8.796;2024-02-16T05:48:38;11.67;;;4.67;;
3068;SDS011;1545;51.728;8.796;2024-02-16T05:51:05;18.67;;;4.93;;
3068;SDS011;1545;51.728;8.796;2024-02-16T05:53:31;16.70;;;4.97;;
3068;SDS011;1545;51.728;8.796;2024-02-16T05:55:58;10.93;;;5.00;;
3068;SDS011;1545;51.728;8.796;2024-02-16T05:58:24;14.17;;;4.53;;
3068;SDS011;1545;51.728;8.796;2024-02-16T06:00:49;10.00;;;5.30;;
3068;SDS011;1545;51.728;8.796;2024-02-16T06:03:15;7.97;;;4.70;;
3068;SDS011;1545;51.728;8.796;2024-02-16T06:05:41;9.37;;;4.63;;
3068;SDS011;1545;51.728;8.796;2024-02-16T06:08:09;7.00;;;4.47;;
3068;SDS011;1545;51.728;8.796;2024-02-16T06:10:35;13.80;;;4.50;;
3068;SDS011;1545;51.728;8.796;2024-02-16T06:13:00;15.40;;;4.70;;
3068;SDS011;1545;51.728;8.796;2024-02-16T06:15:26;9.27;;;4.60;;
3068;SDS011;1545;51.728;8.796;2024-02-16T06:17:51;9.27;;;4.87;;
3068;SDS011;1545;51.728;8.796;2024-02-16T06:20:17;9.73;;;4.60;;
3068;SDS011;1545;51.728;8.796;2024-02-16T06:22:43;9.20;;;4.53;;
3068;SDS011;1545;51.728;8.796;2024-02-16T06:25:08;9.43;;;5.10;;
3068;SDS011;1545;51.728;8.796;2024-02-16T06:27:34;11.57;;;4.93;;
3068;SDS011;1545;51.728;8.796;2024-02-16T06:30:00;11.10;;;4.47;;
3068;SDS011;1545;51.728;8.796;2024-02-16T06:32:28;9.63;;;4.97;;
3068;SDS011;1545;51.728;8.796;2024-02-16T06:34:54;14.67;;;5.50;;
3068;SDS011;1545;51.728;8.796;2024-02-16T06:37:20;17.20;;;5.53;;
3068;SDS011;1545;51.728;8.796;2024-02-16T06:39:46;15.53;;;4.97;;
3068;SDS011;1545;51.728;8.796;2024-02-16T06:42:11;12.73;;;4.47;;
3068;SDS011;1545;51.728;8.796;2024-02-16T06:44:37;10.73;;;4.73;;
3068;SDS011;1545;51.728;8.796;2024-02-16T06:47:04;13.40;;;4.83;;
3068;SDS011;1545;51.728;8.796;2024-02-16T06:49:30;8.60;;;5.27;;
3068;SDS011;1545;51.728;8.796;2024-02-16T06:51:55;9.37;;;5.40;;
3068;SDS011;1545;51.728;8.796;2024-02-16T06:54:20;10.83;;;4.93;;
3068;SDS011;1545;51.728;8.796;2024-02-16T06:56:46;16.93;;;5.60;;
3068;SDS011;1545;51.728;8.796;2024-02-16T06:59:11;9.87;;;4.77;;
3068;SDS011;1545;51.728;8.796;2024-02-16T07:01:37;12.37;;;5.27;;
3068;SDS011;1545;51.728;8.796;2024-02-16T07:04:02;8.57;;;5.20;;
3068;SDS011;1545;51.728;8.796;2024-02-16T07:06:28;8.13;;;4.73;;
3068;SDS011;1545;51.728;8.796;2024-02-16T07:08:53;9.53;;;4.60;;
3068;SDS011;1545;51.728;8.796;2024-02-16T07:11:19;16.10;;;5.53;;
3068;SDS011;1545;51.728;8.796;2024-02-16T07:13:45;9.67;;;4.87;;
3068;SDS011;1545;51.728;8.796;2024-02-16T07:16:11;9.87;;;5.07;;
3068;SDS011;1545;51.728;8.796;2024-02-16T07:18:37;11.33;;;4.73;;
3068;SDS011;1545;51.728;8.796;2024-02-16T07:21:03;8.67;;;4.90;;
3068;SDS011;1545;51.728;8.796;2024-02-16T07:23:28;8.40;;;4.80;;
3068;SDS011;1545;51.728;8.796;2024-02-16T07:25:55;12.87;;;5.00;;
3068;SDS011;1545;51.728;8.796;2024-02-16T07:28:22;15.67;;;5.03;;
3068;SDS011;1545;51.728;8.796;2024-02-16T07:30:47;11.73;;;5.03;;
3068;SDS011;1545;51.728;8.796;2024-02-16T07:33:13;10.43;;;4.90;;
3068;SDS011;1545;51.728;8.796;2024-02-16T07:35:38;15.03;;;6.03;;
3068;SDS011;1545;51.728;8.796;2024-02-16T07:38:04;16.30;;;4.87;;
3068;SDS011;1545;51.728;8.796;2024-02-16T07:40:30;12.07;;;5.57;;
3068;SDS011;1545;51.728;8.796;2024-02-16T07:42:56;12.60;;;5.10;;
3068;SDS011;1545;51.728;8.796;2024-02-16T07:45:22;11.90;;;4.67;;
3068;SDS011;1545;51.728;8.796;2024-02-16T07:47:47;14.33;;;5.97;;
3068;SDS011;1545;51.728;8.796;2024-02-16T07:50:13;13.97;;;4.43;;
3068;SDS011;1545;51.728;8.796;2024-02-16T07:52:42;11.60;;;4.63;;
3068;SDS011;1545;51.728;8.796;2024-02-16T07:55:08;13.47;;;4.13;;
3068;SDS011;1545;51.728;8.796;2024-02-16T07:57:34;6.87;;;4.27;;
3068;SDS011;1545;51.728;8.796;2024-02-16T08:00:00;9.47;;;4.27;;
3068;SDS011;1545;51.728;8.796;2024-02-16T08:02:25;15.17;;;3.93;;
3068;SDS011;1545;51.728;8.796;2024-02-16T08:04:51;12.10;;;5.23;;
3068;SDS011;1545;51.728;8.796;2024-02-16T08:07:17;14.37;;;5.77;;
3068;SDS011;1545;51.728;8.796;2024-02-16T08:09:46;15.37;;;6.13;;
3068;SDS011;1545;51.728;8.796;2024-02-16T08:12:15;15.83;;;5.43;;
3068;SDS011;1545;51.728;8.796;2024-02-16T08:14:41;11.30;;;5.33;;
3068;SDS011;1545;51.728;8.796;2024-02-16T08:17:07;10.07;;;4.60;;
3068;SDS011;1545;51.728;8.796;2024-02-16T08:19:34;9.23;;;5.00;;
3068;SDS011;1545;51.728;8.796;2024-02-16T08:22:01;10.60;;;5.30;;
3068;SDS011;1545;51.728;8.796;2024-02-16T08:24:29;10.03;;;5.10;;
3068;SDS011;1545;51.728;8.796;2024-02-16T08:26:56;19.40;;;4.97;;
3068;SDS011;1545;51.728;8.796;2024-02-16T08:29:22;8.83;;;4.93;;
3068;SDS011;1545;51.728;8.796;2024-02-16T08:31:48;9.20;;;4.63;;
3068;SDS011;1545;51.728;8.796;2024-02-16T08:34:15;9.43;;;4.90;;
3068;SDS011;1545;51.728;8.796;2024-02-16T08:36:44;10.00;;;4.80;;
3068;SDS011;1545;51.728;8.796;2024-02-16T08:39:11;6.13;;;4.30;;
3068;SDS011;1545;51.728;8.796;2024-02-16T08:41:38;7.73;;;4.90;;
3068;SDS011;1545;51.728;8.796;2024-02-16T08:44:03;11.30;;;4.57;;
3068;SDS011;1545;51.728;8.796;2024-02-16T08:46:29;8.13;;;4.63;;
3068;SDS011;1545;51.728;8.796;2024-02-16T08:48:55;7.53;;;4.57;;
3068;SDS011;1545;51.728;8.796;2024-02-16T08:51:21;26.13;;;12.33;;
3068;SDS011;1545;51.728;8.796;2024-02-16T08:53:46;10.67;;;5.93;;
3068;SDS011;1545;51.728;8.796;2024-02-16T08:56:12;21.67;;;6.30;;
3068;SDS011;1545;51.728;8.796;2024-02-16T08:58:38;13.50;;;5.23;;
3068;SDS011;1545;51.728;8.796;2024-02-16T09:01:04;17.47;;;6.57;;
3068;SDS011;1545;51.728;8.796;2024-02-16T09:03:30;42.90;;;6.97;;
3068;SDS011;1545;51.728;8.796;2024-02-16T09:06:01;14.30;;;5.30;;
3068;SDS011;1545;51.728;8.796;2024-02-16T09:08:27;12.93;;;5.30;;
3068;SDS011;1545;51.728;8.796;2024-02-16T09:10:57;14.73;;;5.60;;
3068;SDS011;1545;51.728;8.796;2024-02-16T09:13:33;12.27;;;6.00;;
3068;SDS011;1545;51.728;8.796;2024-02-16T09:16:01;15.87;;;7.10;;
3068;SDS011;1545;51.728;8.796;2024-02-16T09:18:27;13.33;;;6.07;;
3068;SDS011;1545;51.728;8.796;2024-02-16T09:20:52;13.13;;;5.40;;
3068;SDS011;1545;51.728;8.796;2024-02-16T09:23:18;14.40;;;6.10;;
3068;SDS011;1545;51.728;8.796;2024-02-16T09:25:43;12.53;;;5.53;;
3068;SDS011;1545;51.728;8.796;2024-02-16T09:28:11;15.00;;;6.63;;
3068;SDS011;1545;51.728;8.796;2024-02-16T09:30:37;15.93;;;5.10;;
3068;SDS011;1545;51.728;8.796;2024-02-16T09:33:03;9.60;;;5.10;;
3068;SDS011;1545;51.728;8.796;2024-02-16T09:35:28;14.47;;;5.17;;
3068;SDS011;1545;51.728;8.796;2024-02-16T09:37:54;13.93;;;5.00;;
3068;SDS011;1545;51.728;8.796;2024-02-16T09:40:19;14.83;;;5.80;;
3068;SDS011;1545;51.728;8.796;2024-02-16T09:42:47;9.87;;;4.63;;
3068;SDS011;1545;51.728;8.796;2024-02-16T09:45:16;9.90;;;5.67;;
3068;SDS011;1545;51.728;8.796;2024-02-16T09:47:45;14.37;;;5.13;;
3068;SDS011;1545;51.728;8.796;2024-02-16T09:50:14;8.67;;;4.40;;
3068;SDS011;1545;51.728;8.796;2024-02-16T09:52:41;14.87;;;5.90;;
3068;SDS011;1545;51.728;8.796;2024-02-16T09:55:11;9.07;;;5.07;;
3068;SDS011;1545;51.728;8.796;2024-02-16T09:57:38;14.23;;;5.43;;
3068;SDS011;1545;51.728;8.796;2024-02-16T10:00:03;14.47;;;5.60;;
3068;SDS011;1545;51.728;8.796;2024-02-16T10:02:42;13.27;;;6.37;;
3068;SDS011;1545;51.728;8.796;2024-02-16T10:07:44;10.37;;;5.50;;
3068;SDS011;1545;51.728;8.796;2024-02-16T10:10:26;14.67;;;5.77;;
3068;SDS011;1545;51.728;8.796;2024-02-16T10:13:04;15.10;;;5.40;;
3068;SDS011;1545;51.728;8.796;2024-02-16T10:15:34;9.33;;;4.67;;
3068;SDS011;1545;51.728;8.796;2024-02-16T10:18:06;17.30;;;5.53;;
3068;SDS011;1545;51.728;8.796;2024-02-16T10:20:32;9.30;;;5.50;;
3068;SDS011;1545;51.728;8.796;2024-02-16T10:23:02;11.50;;;5.17;;
3068;SDS011;1545;51.728;8.796;2024-02-16T10:25:32;14.50;;;4.93;;
3068;SDS011;1545;51.728;8.796;2024-02-16T10:27:59;12.67;;;5.10;;
3068;SDS011;1545;51.728;8.796;2024-02-16T10:30:30;11.47;;;5.40;;
3068;SDS011;1545;51.728;8.796;2024-02-16T10:32:59;23.20;;;10.10;;
3068;SDS011;1545;51.728;8.796;2024-02-16T10:35:25;17.33;;;6.27;;
3068;SDS011;1545;51.728;8.796;2024-02-16T10:37:51;17.27;;;5.30;;
3068;SDS011;1545;51.728;8.796;2024-02-16T10:40:19;11.50;;;5.60;;
3068;SDS011;1545;51.728;8.796;2024-02-16T10:42:45;11.97;;;5.20;;
3068;SDS011;1545;51.728;8.796;2024-02-16T10:45:11;8.10;;;4.80;;
3068;SDS011;1545;51.728;8.796;2024-02-16T10:47:40;11.10;;;5.07;;
3068;SDS011;1545;51.728;8.796;2024-02-16T10:50:06;11.07;;;5.87;;
3068;SDS011;1545;51.728;8.796;2024-02-16T10:52:32;9.53;;;5.07;;
3068;SDS011;1545;51.728;8.796;2024-02-16T10:54:58;16.13;;;5.33;;
3068;SDS011;1545;51.728;8.796;2024-02-16T10:57:25;18.07;;;6.63;;
3068;SDS011;1545;51.728;8.796;2024-02-16T10:59:52;11.50;;;5.93;;
3068;SDS011;1545;51.728;8.796;2024-02-16T11:02:19;10.90;;;5.07;;
3068;SDS011;1545;51.728;8.796;2024-02-16T11:04:46;8.27;;;4.50;;
3068;SDS011;1545;51.728;8.796;2024-02-16T11:07:17;10.97;;;4.40;;
3068;SDS011;1545;51.728;8.796;2024-02-16T11:09:44;11.30;;;4.40;;
3068;SDS011;1545;51.728;8.796;2024-02-16T11:12:11;8.50;;;4.37;;
3068;SDS011;1545;51.728;8.796;2024-02-16T11:14:42;9.13;;;4.60;;
3068;SDS011;1545;51.728;8.796;2024-02-16T11:17:15;10.73;;;4.60;;
3068;SDS011;1545;51.728;8.796;2024-02-16T11:19:46;9.40;;;4.40;;
3068;SDS011;1545;51.728;8.796;2024-02-16T11:22:18;11.83;;;4.23;;
3068;SDS011;1545;51.728;8.796;2024-02-16T11:24:45;11.97;;;5.07;;
3068;SDS011;1545;51.728;8.796;2024-02-16T11:27:12;18.47;;;8.90;;
3068;SDS011;1545;51.728;8.796;2024-02-16T11:29:40;31.43;;;16.43;;
3068;SDS011;1545;51.728;8.796;2024-02-16T11:32:06;18.87;;;5.57;;
3068;SDS011;1545;51.728;8.796;2024-02-16T11:34:33;10.37;;;4.30;;
3068;SDS011;1545;51.728;8.796;2024-02-16T11:37:00;11.73;;;4.70;;
3068;SDS011;1545;51.728;8.796;2024-02-16T11:39:27;10.13;;;4.93;;
3068;SDS011;1545;51.728;8.796;2024-02-16T11:42:07;16.53;;;5.17;;
3068;SDS011;1545;51.728;8.796;2024-02-16T11:44:38;12.77;;;4.73;;
3068;SDS011;1545;51.728;8.796;2024-02-16T11:47:05;9.77;;;4.60;;
3068;SDS011;1545;51.728;8.796;2024-02-16T11:49:35;18.23;;;4.93;;
3068;SDS011;1545;51.728;8.796;2024-02-16T11:52:01;16.30;;;5.60;;
3068;SDS011;1545;51.728;8.796;2024-02-16T11:54:29;17.00;;;5.07;;
3068;SDS011;1545;51.728;8.796;2024-02-16T11:56:56;13.40;;;4.93;;
3068;SDS011;1545;51.728;8.796;2024-02-16T11:59:22;15.87;;;5.10;;
3068;SDS011;1545;51.728;8.796;2024-02-16T12:01:48;12.10;;;5.13;;
3068;SDS011;1545;51.728;8.796;2024-02-16T12:04:24;13.13;;;5.73;;
3068;SDS011;1545;51.728;8.796;2024-02-16T12:06:52;12.87;;;5.10;;
3068;SDS011;1545;51.728;8.796;2024-02-16T12:09:20;16.83;;;5.07;;
3068;SDS011;1545;51.728;8.796;2024-02-16T12:11:47;16.43;;;5.33;;
3068;SDS011;1545;51.728;8.796;2024-02-16T12:14:13;14.30;;;5.30;;
3068;SDS011;1545;51.728;8.796;2024-02-16T12:16:38;18.50;;;5.37;;
3068;SDS011;1545;51.728;8.796;2024-02-16T12:19:04;18.30;;;5.83;;
3068;SDS011;1545;51.728;8.796;2024-02-16T12:21:30;17.23;;;5.30;;
3068;SDS011;1545;51.728;8.796;2024-02-16T12:23:56;21.77;;;5.10;;
3068;SDS011;1545;51.728;8.796;2024-02-16T12:26:21;14.57;;;5.30;;
3068;SDS011;1545;51.728;8.796;2024-02-16T12:28:47;15.27;;;5.43;;
3068;SDS011;1545;51.728;8.796;2024-02-16T12:31:19;13.30;;;4.87;;
3068;SDS011;1545;51.728;8.796;2024-02-16T12:33:46;17.33;;;5.77;;
3068;SDS011;1545;51.728;8.796;2024-02-16T12:36:11;10.17;;;5.03;;
3068;SDS011;1545;51.728;8.796;2024-02-16T12:38:37;24.13;;;6.03;;
3068;SDS011;1545;51.728;8.796;2024-02-16T12:41:02;19.43;;;5.90;;
3068;SDS011;1545;51.728;8.796;2024-02-16T12:43:28;14.23;;;5.60;;
3068;SDS011;1545;51.728;8.796;2024-02-16T12:45:54;18.60;;;6.07;;
3068;SDS011;1545;51.728;8.796;2024-02-16T12:48:20;17.13;;;6.23;;
3068;SDS011;1545;51.728;8.796;2024-02-16T12:50:45;21.77;;;5.63;;
3068;SDS011;1545;51.728;8.796;2024-02-16T12:53:12;15.17;;;5.90;;
3068;SDS011;1545;51.728;8.796;2024-02-16T12:55:37;16.27;;;5.80;;
3068;SDS011;1545;51.728;8.796;2024-02-16T12:58:03;18.17;;;6.40;;
3068;SDS011;1545;51.728;8.796;2024-02-16T13:00:29;12.93;;;5.63;;
3068;SDS011;1545;51.728;8.796;2024-02-16T13:02:54;14.50;;;5.47;;
3068;SDS011;1545;51.728;8.796;2024-02-16T13:05:20;17.30;;;6.17;;
3068;SDS011;1545;51.728;8.796;2024-02-16T13:07:46;10.63;;;5.50;;
3068;SDS011;1545;51.728;8.796;2024-02-16T13:10:12;15.67;;;5.87;;
3068;SDS011;1545;51.728;8.796;2024-02-16T13:12:37;16.00;;;6.10;;
3068;SDS011;1545;51.728;8.796;2024-02-16T13:15:04;15.97;;;5.90;;
3068;SDS011;1545;51.728;8.796;2024-02-16T13:17:30;15.60;;;5.80;;
3068;SDS011;1545;51.728;8.796;2024-02-16T13:19:55;13.00;;;5.87;;
3068;SDS011;1545;51.728;8.796;2024-02-16T13:22:29;25.23;;;6.70;;
3068;SDS011;1545;51.728;8.796;2024-02-16T13:24:54;25.47;;;6.30;;
3068;SDS011;1545;51.728;8.796;2024-02-16T13:27:20;17.80;;;6.10;;
3068;SDS011;1545;51.728;8.796;2024-02-16T13:29:45;20.10;;;7.13;;
3068;SDS011;1545;51.728;8.796;2024-02-16T13:32:10;21.37;;;6.67;;
3068;SDS011;1545;51.728;8.796;2024-02-16T13:34:36;17.20;;;6.50;;
3068;SDS011;1545;51.728;8.796;2024-02-16T13:37:01;15.27;;;6.43;;
3068;SDS011;1545;51.728;8.796;2024-02-16T13:39:27;20.63;;;6.30;;
3068;SDS011;1545;51.728;8.796;2024-02-16T13:41:52;19.77;;;5.83;;
3068;SDS011;1545;51.728;8.796;2024-02-16T13:44:18;13.10;;;6.57;;
3068;SDS011;1545;51.728;8.796;2024-02-16T13:46:46;14.40;;;7.13;;
3068;SDS011;1545;51.728;8.796;2024-02-16T13:49:14;17.90;;;6.17;;
3068;SDS011;1545;51.728;8.796;2024-02-16T13:51:41;19.77;;;7.23;;
3068;SDS011;1545;51.728;8.796;2024-02-16T13:54:06;17.37;;;7.50;;
3068;SDS011;1545;51.728;8.796;2024-02-16T13:56:32;17.03;;;6.90;;
3068;SDS011;1545;51.728;8.796;2024-02-16T13:58:58;29.80;;;8.30;;
3068;SDS011;1545;51.728;8.796;2024-02-16T14:01:23;23.30;;;7.90;;
3068;SDS011;1545;51.728;8.796;2024-02-16T14:03:49;21.73;;;8.33;;
3068;SDS011;1545;51.728;8.796;2024-02-16T14:06:15;24.77;;;8.83;;
3068;SDS011;1545;51.728;8.796;2024-02-16T14:08:41;21.50;;;8.63;;
3068;SDS011;1545;51.728;8.796;2024-02-16T14:11:06;19.53;;;9.27;;
3068;SDS011;1545;51.728;8.796;2024-02-16T14:13:33;26.70;;;9.47;;
3068;SDS011;1545;51.728;8.796;2024-02-16T14:15:59;24.67;;;9.33;;
3068;SDS011;1545;51.728;8.796;2024-02-16T14:18:25;23.90;;;11.20;;
3068;SDS011;1545;51.728;8.796;2024-02-16T14:20:50;24.73;;;10.33;;
3068;SDS011;1545;51.728;8.796;2024-02-16T14:23:16;27.50;;;10.63;;
3068;SDS011;1545;51.728;8.796;2024-02-16T14:25:44;27.33;;;10.63;;
3068;SDS011;1545;51.728;8.796;2024-02-16T14:28:10;22.83;;;10.97;;
3068;SDS011;1545;51.728;8.796;2024-02-16T14:30:35;20.50;;;11.27;;
3068;SDS011;1545;51.728;8.796;2024-02-16T14:33:01;26.77;;;12.00;;
3068;SDS011;1545;51.728;8.796;2024-02-16T14:35:29;24.73;;;11.90;;
3068;SDS011;1545;51.728;8.796;2024-02-16T14:37:56;26.17;;;11.90;;
3068;SDS011;1545;51.728;8.796;2024-02-16T14:40:22;30.33;;;11.97;;
3068;SDS011;1545;51.728;8.796;2024-02-16T14:42:48;25.30;;;12.27;;
3068;SDS011;1545;51.728;8.796;2024-02-16T14:45:13;31.93;;;12.13;;
3068;SDS011;1545;51.728;8.796;2024-02-16T14:47:44;21.80;;;12.10;;
3068;SDS011;1545;51.728;8.796;2024-02-16T14:50:13;38.90;;;12.70;;
3068;SDS011;1545;51.728;8.796;2024-02-16T14:52:39;25.83;;;12.63;;
3068;SDS011;1545;51.728;8.796;2024-02-16T14:55:06;30.17;;;12.50;;
3068;SDS011;1545;51.728;8.796;2024-02-16T14:57:38;26.40;;;13.40;;
3068;SDS011;1545;51.728;8.796;2024-02-16T15:00:05;33.07;;;13.03;;
3068;SDS011;1545;51.728;8.796;2024-02-16T15:02:32;27.40;;;12.67;;